sensor_id;sensor_type;location;lat;lon;timestamp;P1;durP1;ratioP1;P2;durP2;ratioP2
18360;SDS011;9308;48.550;9.108;2022-09-09T00:00:23;5.43;;;2.80;;
18360;SDS011;9308;48.550;9.108;2022-09-09T00:05:53;3.47;;;2.87;;
18360;SDS011;9308;48.550;9.108;2022-09-09T00:11:45;4.80;;;2.70;;
18360;SDS011;9308;48.550;9.108;2022-09-09T00:14:18;3.67;;;2.27;;
18360;SDS011;9308;48.550;9.108;2022-09-09T00:16:53;4.63;;;2.63;;
18360;SDS011;9308;48.550;9.108;2022-09-09T00:19:30;3.20;;;2.90;;
18360;SDS011;9308;48.550;9.108;2022-09-09T00:22:07;3.33;;;2.80;;
18360;SDS011;9308;48.550;9.108;2022-09-09T00:27:19;5.40;;;3.30;;
18360;SDS011;9308;48.550;9.108;2022-09-09T00:29:56;5.30;;;3.13;;
18360;SDS011;9308;48.550;9.108;2022-09-09T00:32:30;4.13;;;3.40;;
18360;SDS011;9308;48.550;9.108;2022-09-09T00:35:00;6.33;;;3.00;;
18360;SDS011;9308;48.550;9.108;2022-09-09T00:37:48;4.33;;;3.10;;
18360;SDS011;9308;48.550;9.108;2022-09-09T00:40:39;5.40;;;2.93;;
18360;SDS011;9308;48.550;9.108;2022-09-09T00:59:48;4.77;;;4.43;;
18360;SDS011;9308;48.550;9.108;2022-09-09T01:04:53;6.13;;;3.43;;
18360;SDS011;9308;48.550;9.108;2022-09-09T01:07:20;3.37;;;2.80;;
18360;SDS011;9308;48.550;9.108;2022-09-09T01:09:56;2.20;;;2.00;;
18360;SDS011;9308;48.550;9.108;2022-09-09T01:12:41;5.07;;;2.57;;
18360;SDS011;9308;48.550;9.108;2022-09-09T01:17:46;5.13;;;2.00;;
18360;SDS011;9308;48.550;9.108;2022-09-09T01:20:27;3.00;;;2.30;;
18360;SDS011;9308;48.550;9.108;2022-09-09T01:23:01;2.30;;;2.10;;
18360;SDS011;9308;48.550;9.108;2022-09-09T01:28:09;6.53;;;2.47;;
18360;SDS011;9308;48.550;9.108;2022-09-09T01:30:39;2.50;;;1.80;;
18360;SDS011;9308;48.550;9.108;2022-09-09T01:33:07;3.20;;;2.90;;
18360;SDS011;9308;48.550;9.108;2022-09-09T01:35:46;7.20;;;2.47;;
18360;SDS011;9308;48.550;9.108;2022-09-09T01:40:52;2.17;;;1.97;;
18360;SDS011;9308;48.550;9.108;2022-09-09T01:43:21;5.10;;;2.23;;
18360;SDS011;9308;48.550;9.108;2022-09-09T01:45:49;2.17;;;1.97;;
18360;SDS011;9308;48.550;9.108;2022-09-09T01:48:18;3.50;;;2.13;;
18360;SDS011;9308;48.550;9.108;2022-09-09T01:50:45;6.30;;;2.43;;
18360;SDS011;9308;48.550;9.108;2022-09-09T01:53:10;5.17;;;2.10;;
18360;SDS011;9308;48.550;9.108;2022-09-09T01:55:40;2.40;;;1.80;;
18360;SDS011;9308;48.550;9.108;2022-09-09T02:00:58;3.70;;;2.10;;
18360;SDS011;9308;48.550;9.108;2022-09-09T02:03:31;4.20;;;2.43;;
18360;SDS011;9308;48.550;9.108;2022-09-09T02:06:12;3.73;;;2.27;;
18360;SDS011;9308;48.550;9.108;2022-09-09T02:08:48;6.53;;;2.93;;
18360;SDS011;9308;48.550;9.108;2022-09-09T02:11:18;3.33;;;2.33;;
18360;SDS011;9308;48.550;9.108;2022-09-09T02:13:47;5.57;;;2.00;;
18360;SDS011;9308;48.550;9.108;2022-09-09T02:19:39;4.07;;;2.63;;
18360;SDS011;9308;48.550;9.108;2022-09-09T02:22:15;2.60;;;2.30;;
18360;SDS011;9308;48.550;9.108;2022-09-09T02:24:44;3.03;;;2.83;;
18360;SDS011;9308;48.550;9.108;2022-09-09T02:27:11;2.80;;;2.60;;
18360;SDS011;9308;48.550;9.108;2022-09-09T02:29:39;3.17;;;2.30;;
18360;SDS011;9308;48.550;9.108;2022-09-09T02:32:07;4.00;;;2.13;;
18360;SDS011;9308;48.550;9.108;2022-09-09T02:34:36;4.27;;;2.77;;
18360;SDS011;9308;48.550;9.108;2022-09-09T02:37:08;2.83;;;2.63;;
18360;SDS011;9308;48.550;9.108;2022-09-09T02:39:35;5.13;;;3.40;;
18360;SDS011;9308;48.550;9.108;2022-09-09T02:42:01;4.03;;;2.60;;
18360;SDS011;9308;48.550;9.108;2022-09-09T02:44:29;2.57;;;2.37;;
18360;SDS011;9308;48.550;9.108;2022-09-09T02:47:37;4.23;;;2.90;;
18360;SDS011;9308;48.550;9.108;2022-09-09T02:49:47;3.30;;;2.70;;
18360;SDS011;9308;48.550;9.108;2022-09-09T02:52:42;5.77;;;2.57;;
18360;SDS011;9308;48.550;9.108;2022-09-09T02:55:39;2.77;;;2.40;;
18360;SDS011;9308;48.550;9.108;2022-09-09T02:58:09;2.83;;;2.50;;
18360;SDS011;9308;48.550;9.108;2022-09-09T03:00:38;2.50;;;2.27;;
18360;SDS011;9308;48.550;9.108;2022-09-09T03:03:06;5.10;;;2.73;;
18360;SDS011;9308;48.550;9.108;2022-09-09T03:05:33;3.00;;;2.67;;
18360;SDS011;9308;48.550;9.108;2022-09-09T03:07:59;2.40;;;2.20;;
18360;SDS011;9308;48.550;9.108;2022-09-09T03:10:24;4.10;;;2.67;;
18360;SDS011;9308;48.550;9.108;2022-09-09T03:12:50;3.60;;;2.47;;
18360;SDS011;9308;48.550;9.108;2022-09-09T03:15:16;2.50;;;2.30;;
18360;SDS011;9308;48.550;9.108;2022-09-09T03:17:42;3.47;;;2.63;;
18360;SDS011;9308;48.550;9.108;2022-09-09T03:20:07;4.00;;;2.10;;
18360;SDS011;9308;48.550;9.108;2022-09-09T03:22:33;2.23;;;2.03;;
18360;SDS011;9308;48.550;9.108;2022-09-09T03:24:59;3.20;;;2.90;;
18360;SDS011;9308;48.550;9.108;2022-09-09T03:27:25;4.57;;;2.50;;
18360;SDS011;9308;48.550;9.108;2022-09-09T03:29:51;4.43;;;2.40;;
18360;SDS011;9308;48.550;9.108;2022-09-09T03:32:17;5.63;;;2.87;;
18360;SDS011;9308;48.550;9.108;2022-09-09T03:34:43;2.67;;;2.47;;
18360;SDS011;9308;48.550;9.108;2022-09-09T03:37:09;2.50;;;2.30;;
18360;SDS011;9308;48.550;9.108;2022-09-09T03:39:34;5.77;;;3.10;;
18360;SDS011;9308;48.550;9.108;2022-09-09T03:41:59;4.33;;;3.00;;
18360;SDS011;9308;48.550;9.108;2022-09-09T03:44:29;3.70;;;2.70;;
18360;SDS011;9308;48.550;9.108;2022-09-09T03:46:55;3.40;;;2.67;;
18360;SDS011;9308;48.550;9.108;2022-09-09T03:49:21;4.50;;;2.83;;
18360;SDS011;9308;48.550;9.108;2022-09-09T03:51:47;3.67;;;2.57;;
18360;SDS011;9308;48.550;9.108;2022-09-09T03:54:12;3.83;;;2.57;;
18360;SDS011;9308;48.550;9.108;2022-09-09T03:56:38;7.73;;;2.43;;
18360;SDS011;9308;48.550;9.108;2022-09-09T03:59:06;4.53;;;2.70;;
18360;SDS011;9308;48.550;9.108;2022-09-09T04:01:32;4.30;;;2.43;;
18360;SDS011;9308;48.550;9.108;2022-09-09T04:03:57;2.70;;;2.50;;
18360;SDS011;9308;48.550;9.108;2022-09-09T04:06:23;2.67;;;2.47;;
18360;SDS011;9308;48.550;9.108;2022-09-09T04:08:49;5.17;;;2.90;;
18360;SDS011;9308;48.550;9.108;2022-09-09T04:11:17;4.03;;;2.70;;
18360;SDS011;9308;48.550;9.108;2022-09-09T04:13:43;3.10;;;2.70;;
18360;SDS011;9308;48.550;9.108;2022-09-09T04:16:10;8.20;;;2.80;;
18360;SDS011;9308;48.550;9.108;2022-09-09T04:18:38;4.17;;;2.50;;
18360;SDS011;9308;48.550;9.108;2022-09-09T04:21:04;7.37;;;2.60;;
18360;SDS011;9308;48.550;9.108;2022-09-09T04:23:32;3.63;;;2.53;;
18360;SDS011;9308;48.550;9.108;2022-09-09T04:25:59;4.33;;;2.80;;
18360;SDS011;9308;48.550;9.108;2022-09-09T04:28:26;3.40;;;2.60;;
18360;SDS011;9308;48.550;9.108;2022-09-09T04:30:54;3.97;;;2.60;;
18360;SDS011;9308;48.550;9.108;2022-09-09T04:33:19;3.27;;;2.20;;
18360;SDS011;9308;48.550;9.108;2022-09-09T04:35:47;4.40;;;2.60;;
18360;SDS011;9308;48.550;9.108;2022-09-09T04:38:15;3.20;;;2.90;;
18360;SDS011;9308;48.550;9.108;2022-09-09T04:40:47;4.27;;;2.30;;
18360;SDS011;9308;48.550;9.108;2022-09-09T04:43:14;4.40;;;2.60;;
18360;SDS011;9308;48.550;9.108;2022-09-09T04:45:44;2.80;;;2.30;;
18360;SDS011;9308;48.550;9.108;2022-09-09T04:48:12;2.50;;;2.27;;
18360;SDS011;9308;48.550;9.108;2022-09-09T04:50:39;4.40;;;2.67;;
18360;SDS011;9308;48.550;9.108;2022-09-09T04:53:05;3.60;;;2.30;;
18360;SDS011;9308;48.550;9.108;2022-09-09T04:55:31;2.80;;;2.50;;
18360;SDS011;9308;48.550;9.108;2022-09-09T04:57:57;4.87;;;2.30;;
18360;SDS011;9308;48.550;9.108;2022-09-09T05:00:23;3.30;;;2.10;;
18360;SDS011;9308;48.550;9.108;2022-09-09T05:02:49;5.20;;;2.40;;
18360;SDS011;9308;48.550;9.108;2022-09-09T05:05:14;2.93;;;2.10;;
18360;SDS011;9308;48.550;9.108;2022-09-09T05:07:41;3.10;;;2.40;;
18360;SDS011;9308;48.550;9.108;2022-09-09T05:10:07;9.47;;;2.30;;
18360;SDS011;9308;48.550;9.108;2022-09-09T05:12:33;4.70;;;2.80;;
18360;SDS011;9308;48.550;9.108;2022-09-09T05:14:58;4.20;;;2.10;;
18360;SDS011;9308;48.550;9.108;2022-09-09T05:17:23;2.67;;;2.10;;
18360;SDS011;9308;48.550;9.108;2022-09-09T05:19:49;3.33;;;2.50;;
18360;SDS011;9308;48.550;9.108;2022-09-09T05:22:18;4.53;;;2.60;;
18360;SDS011;9308;48.550;9.108;2022-09-09T05:24:45;5.00;;;2.80;;
18360;SDS011;9308;48.550;9.108;2022-09-09T05:27:11;3.00;;;2.73;;
18360;SDS011;9308;48.550;9.108;2022-09-09T05:29:37;7.20;;;2.63;;
18360;SDS011;9308;48.550;9.108;2022-09-09T05:32:03;2.90;;;2.70;;
18360;SDS011;9308;48.550;9.108;2022-09-09T05:34:29;3.80;;;2.27;;
18360;SDS011;9308;48.550;9.108;2022-09-09T05:36:55;3.33;;;2.67;;
18360;SDS011;9308;48.550;9.108;2022-09-09T05:39:20;3.17;;;2.27;;
18360;SDS011;9308;48.550;9.108;2022-09-09T05:41:46;3.43;;;2.10;;
18360;SDS011;9308;48.550;9.108;2022-09-09T05:44:11;3.13;;;2.83;;
18360;SDS011;9308;48.550;9.108;2022-09-09T05:46:37;3.33;;;2.07;;
18360;SDS011;9308;48.550;9.108;2022-09-09T05:49:03;2.70;;;2.13;;
18360;SDS011;9308;48.550;9.108;2022-09-09T05:51:30;3.50;;;2.33;;
18360;SDS011;9308;48.550;9.108;2022-09-09T05:53:56;3.10;;;2.40;;
18360;SDS011;9308;48.550;9.108;2022-09-09T05:56:24;3.47;;;2.70;;
18360;SDS011;9308;48.550;9.108;2022-09-09T05:58:52;3.30;;;2.20;;
18360;SDS011;9308;48.550;9.108;2022-09-09T06:01:28;2.97;;;2.13;;
18360;SDS011;9308;48.550;9.108;2022-09-09T06:03:58;4.77;;;3.00;;
18360;SDS011;9308;48.550;9.108;2022-09-09T06:06:24;3.03;;;2.73;;
18360;SDS011;9308;48.550;9.108;2022-09-09T06:08:52;3.03;;;2.73;;
18360;SDS011;9308;48.550;9.108;2022-09-09T06:11:23;2.47;;;2.23;;
18360;SDS011;9308;48.550;9.108;2022-09-09T06:13:50;3.43;;;2.53;;
18360;SDS011;9308;48.550;9.108;2022-09-09T06:16:23;4.00;;;2.40;;
18360;SDS011;9308;48.550;9.108;2022-09-09T06:18:49;5.30;;;2.33;;
18360;SDS011;9308;48.550;9.108;2022-09-09T06:21:16;2.67;;;2.43;;
18360;SDS011;9308;48.550;9.108;2022-09-09T06:23:44;3.27;;;2.50;;
18360;SDS011;9308;48.550;9.108;2022-09-09T06:26:11;2.90;;;2.10;;
18360;SDS011;9308;48.550;9.108;2022-09-09T06:28:38;3.10;;;2.63;;
18360;SDS011;9308;48.550;9.108;2022-09-09T06:31:05;2.90;;;2.27;;
18360;SDS011;9308;48.550;9.108;2022-09-09T06:33:35;4.07;;;2.33;;
18360;SDS011;9308;48.550;9.108;2022-09-09T06:36:13;3.20;;;2.33;;
18360;SDS011;9308;48.550;9.108;2022-09-09T06:38:40;3.90;;;2.67;;
18360;SDS011;9308;48.550;9.108;2022-09-09T06:41:06;3.13;;;2.10;;
18360;SDS011;9308;48.550;9.108;2022-09-09T06:43:32;5.50;;;2.50;;
18360;SDS011;9308;48.550;9.108;2022-09-09T06:46:02;3.60;;;2.67;;
18360;SDS011;9308;48.550;9.108;2022-09-09T06:48:28;3.23;;;2.67;;
18360;SDS011;9308;48.550;9.108;2022-09-09T06:53:28;2.17;;;1.90;;
18360;SDS011;9308;48.550;9.108;2022-09-09T06:55:54;5.60;;;3.07;;
18360;SDS011;9308;48.550;9.108;2022-09-09T06:58:20;4.87;;;2.40;;
18360;SDS011;9308;48.550;9.108;2022-09-09T07:00:48;3.33;;;2.37;;
18360;SDS011;9308;48.550;9.108;2022-09-09T07:03:14;2.13;;;2.00;;
18360;SDS011;9308;48.550;9.108;2022-09-09T07:05:39;2.50;;;2.30;;
18360;SDS011;9308;48.550;9.108;2022-09-09T07:08:05;4.03;;;2.60;;
18360;SDS011;9308;48.550;9.108;2022-09-09T07:10:31;2.03;;;1.83;;
18360;SDS011;9308;48.550;9.108;2022-09-09T07:12:57;2.77;;;2.13;;
18360;SDS011;9308;48.550;9.108;2022-09-09T07:15:22;2.63;;;2.37;;
18360;SDS011;9308;48.550;9.108;2022-09-09T07:17:48;2.53;;;2.30;;
18360;SDS011;9308;48.550;9.108;2022-09-09T07:20:14;2.03;;;1.90;;
18360;SDS011;9308;48.550;9.108;2022-09-09T07:22:40;5.17;;;2.47;;
18360;SDS011;9308;48.550;9.108;2022-09-09T07:25:06;3.57;;;2.40;;
18360;SDS011;9308;48.550;9.108;2022-09-09T07:27:32;4.37;;;2.20;;
18360;SDS011;9308;48.550;9.108;2022-09-09T07:29:57;2.90;;;2.10;;
18360;SDS011;9308;48.550;9.108;2022-09-09T07:32:23;4.10;;;2.23;;
18360;SDS011;9308;48.550;9.108;2022-09-09T07:34:48;4.20;;;2.20;;
18360;SDS011;9308;48.550;9.108;2022-09-09T07:37:15;3.40;;;2.50;;
18360;SDS011;9308;48.550;9.108;2022-09-09T07:39:41;3.97;;;2.47;;
18360;SDS011;9308;48.550;9.108;2022-09-09T07:42:07;2.97;;;2.17;;
18360;SDS011;9308;48.550;9.108;2022-09-09T07:44:33;3.43;;;2.03;;
18360;SDS011;9308;48.550;9.108;2022-09-09T07:47:00;4.07;;;2.93;;
18360;SDS011;9308;48.550;9.108;2022-09-09T07:49:26;2.80;;;2.60;;
18360;SDS011;9308;48.550;9.108;2022-09-09T07:51:52;3.47;;;2.37;;
18360;SDS011;9308;48.550;9.108;2022-09-09T07:54:18;5.13;;;2.40;;
18360;SDS011;9308;48.550;9.108;2022-09-09T07:56:48;3.90;;;2.30;;
18360;SDS011;9308;48.550;9.108;2022-09-09T07:59:14;2.37;;;2.20;;
18360;SDS011;9308;48.550;9.108;2022-09-09T08:01:41;3.20;;;2.10;;
18360;SDS011;9308;48.550;9.108;2022-09-09T08:04:13;2.97;;;2.17;;
18360;SDS011;9308;48.550;9.108;2022-09-09T08:06:41;2.77;;;2.50;;
18360;SDS011;9308;48.550;9.108;2022-09-09T08:09:08;2.17;;;1.97;;
18360;SDS011;9308;48.550;9.108;2022-09-09T08:11:35;2.50;;;2.10;;
18360;SDS011;9308;48.550;9.108;2022-09-09T08:14:01;2.73;;;2.20;;
18360;SDS011;9308;48.550;9.108;2022-09-09T08:16:31;3.60;;;2.63;;
18360;SDS011;9308;48.550;9.108;2022-09-09T08:18:58;2.80;;;2.03;;
18360;SDS011;9308;48.550;9.108;2022-09-09T08:21:25;2.60;;;2.40;;
18360;SDS011;9308;48.550;9.108;2022-09-09T08:23:53;2.50;;;2.30;;
18360;SDS011;9308;48.550;9.108;2022-09-09T08:26:20;2.30;;;2.07;;
18360;SDS011;9308;48.550;9.108;2022-09-09T08:28:51;2.67;;;2.47;;
18360;SDS011;9308;48.550;9.108;2022-09-09T08:31:20;2.63;;;2.13;;
18360;SDS011;9308;48.550;9.108;2022-09-09T08:33:46;4.10;;;2.00;;
18360;SDS011;9308;48.550;9.108;2022-09-09T08:36:14;3.57;;;1.90;;
18360;SDS011;9308;48.550;9.108;2022-09-09T08:38:42;2.40;;;2.20;;
18360;SDS011;9308;48.550;9.108;2022-09-09T08:46:45;4.60;;;2.33;;
18360;SDS011;9308;48.550;9.108;2022-09-09T08:52:19;4.40;;;2.20;;
18360;SDS011;9308;48.550;9.108;2022-09-09T08:54:50;3.40;;;2.13;;
18360;SDS011;9308;48.550;9.108;2022-09-09T08:57:23;2.57;;;1.90;;
18360;SDS011;9308;48.550;9.108;2022-09-09T08:59:52;5.53;;;2.33;;
18360;SDS011;9308;48.550;9.108;2022-09-09T09:02:22;3.17;;;1.90;;
18360;SDS011;9308;48.550;9.108;2022-09-09T09:05:04;3.60;;;2.00;;
18360;SDS011;9308;48.550;9.108;2022-09-09T09:08:17;4.57;;;2.03;;
18360;SDS011;9308;48.550;9.108;2022-09-09T09:10:51;2.10;;;1.60;;
18360;SDS011;9308;48.550;9.108;2022-09-09T09:13:25;3.03;;;2.03;;
18360;SDS011;9308;48.550;9.108;2022-09-09T09:16:00;5.20;;;1.80;;
18360;SDS011;9308;48.550;9.108;2022-09-09T09:18:35;2.20;;;2.00;;
18360;SDS011;9308;48.550;9.108;2022-09-09T09:21:25;3.10;;;1.80;;
18360;SDS011;9308;48.550;9.108;2022-09-09T09:23:59;1.97;;;1.63;;
18360;SDS011;9308;48.550;9.108;2022-09-09T09:26:29;5.17;;;2.70;;
18360;SDS011;9308;48.550;9.108;2022-09-09T09:28:58;3.70;;;1.93;;
18360;SDS011;9308;48.550;9.108;2022-09-09T09:31:24;2.40;;;1.73;;
18360;SDS011;9308;48.550;9.108;2022-09-09T09:33:55;3.80;;;2.17;;
18360;SDS011;9308;48.550;9.108;2022-09-09T09:41:51;2.10;;;1.60;;
18360;SDS011;9308;48.550;9.108;2022-09-09T09:44:22;2.30;;;1.63;;
18360;SDS011;9308;48.550;9.108;2022-09-09T09:49:53;5.47;;;1.90;;
18360;SDS011;9308;48.550;9.108;2022-09-09T09:52:24;1.77;;;1.67;;
18360;SDS011;9308;48.550;9.108;2022-09-09T09:54:52;3.33;;;1.40;;
18360;SDS011;9308;48.550;9.108;2022-09-09T09:57:18;5.17;;;2.20;;
18360;SDS011;9308;48.550;9.108;2022-09-09T10:02:43;2.60;;;1.40;;
18360;SDS011;9308;48.550;9.108;2022-09-09T10:07:46;2.53;;;1.63;;
18360;SDS011;9308;48.550;9.108;2022-09-09T10:10:19;1.43;;;1.33;;
18360;SDS011;9308;48.550;9.108;2022-09-09T10:15:38;1.17;;;1.07;;
18360;SDS011;9308;48.550;9.108;2022-09-09T10:24:04;3.07;;;1.57;;
18360;SDS011;9308;48.550;9.108;2022-09-09T10:34:48;2.90;;;1.30;;
18360;SDS011;9308;48.550;9.108;2022-09-09T10:40:19;5.33;;;1.50;;
18360;SDS011;9308;48.550;9.108;2022-09-09T10:43:13;3.43;;;1.47;;
18360;SDS011;9308;48.550;9.108;2022-09-09T10:48:34;3.90;;;1.50;;
18360;SDS011;9308;48.550;9.108;2022-09-09T10:56:51;1.30;;;1.20;;
18360;SDS011;9308;48.550;9.108;2022-09-09T10:59:26;2.03;;;1.00;;
18360;SDS011;9308;48.550;9.108;2022-09-09T11:01:57;2.60;;;1.20;;
18360;SDS011;9308;48.550;9.108;2022-09-09T11:04:35;2.33;;;1.30;;
18360;SDS011;9308;48.550;9.108;2022-09-09T11:07:05;1.30;;;1.10;;
18360;SDS011;9308;48.550;9.108;2022-09-09T11:09:37;3.67;;;1.50;;
18360;SDS011;9308;48.550;9.108;2022-09-09T11:12:09;3.07;;;1.23;;
18360;SDS011;9308;48.550;9.108;2022-09-09T11:14:44;2.97;;;1.10;;
18360;SDS011;9308;48.550;9.108;2022-09-09T11:17:28;2.83;;;1.30;;
18360;SDS011;9308;48.550;9.108;2022-09-09T11:20:05;1.83;;;1.33;;
18360;SDS011;9308;48.550;9.108;2022-09-09T11:22:33;2.90;;;1.50;;
18360;SDS011;9308;48.550;9.108;2022-09-09T11:25:08;3.33;;;1.23;;
18360;SDS011;9308;48.550;9.108;2022-09-09T11:27:44;2.50;;;1.10;;
18360;SDS011;9308;48.550;9.108;2022-09-09T11:35:56;0.80;;;0.80;;
18360;SDS011;9308;48.550;9.108;2022-09-09T11:38:45;3.00;;;1.07;;
18360;SDS011;9308;48.550;9.108;2022-09-09T11:41:12;1.73;;;1.10;;
18360;SDS011;9308;48.550;9.108;2022-09-09T11:43:47;2.20;;;0.90;;
18360;SDS011;9308;48.550;9.108;2022-09-09T11:46:31;2.50;;;1.20;;
18360;SDS011;9308;48.550;9.108;2022-09-09T11:49:02;2.83;;;1.10;;
18360;SDS011;9308;48.550;9.108;2022-09-09T11:51:30;1.30;;;0.90;;
18360;SDS011;9308;48.550;9.108;2022-09-09T11:53:58;1.17;;;0.93;;
18360;SDS011;9308;48.550;9.108;2022-09-09T11:56:30;1.20;;;0.70;;
18360;SDS011;9308;48.550;9.108;2022-09-09T12:01:57;2.50;;;1.03;;
18360;SDS011;9308;48.550;9.108;2022-09-09T12:04:28;2.87;;;0.70;;
18360;SDS011;9308;48.550;9.108;2022-09-09T12:07:01;1.43;;;0.90;;
18360;SDS011;9308;48.550;9.108;2022-09-09T12:09:49;1.60;;;0.90;;
18360;SDS011;9308;48.550;9.108;2022-09-09T12:12:25;2.47;;;1.20;;
18360;SDS011;9308;48.550;9.108;2022-09-09T12:14:55;1.30;;;0.93;;
18360;SDS011;9308;48.550;9.108;2022-09-09T12:17:24;1.10;;;1.00;;
18360;SDS011;9308;48.550;9.108;2022-09-09T12:25:27;2.67;;;1.20;;
18360;SDS011;9308;48.550;9.108;2022-09-09T12:28:16;2.00;;;1.10;;
18360;SDS011;9308;48.550;9.108;2022-09-09T12:33:33;2.60;;;1.13;;
18360;SDS011;9308;48.550;9.108;2022-09-09T12:36:01;1.63;;;0.90;;
18360;SDS011;9308;48.550;9.108;2022-09-09T12:40:59;1.80;;;1.20;;
18360;SDS011;9308;48.550;9.108;2022-09-09T12:43:26;2.33;;;1.13;;
18360;SDS011;9308;48.550;9.108;2022-09-09T12:46:13;1.00;;;0.90;;
18360;SDS011;9308;48.550;9.108;2022-09-09T12:48:51;2.20;;;1.20;;
18360;SDS011;9308;48.550;9.108;2022-09-09T12:51:19;2.43;;;1.23;;
18360;SDS011;9308;48.550;9.108;2022-09-09T12:53:50;1.60;;;1.10;;
18360;SDS011;9308;48.550;9.108;2022-09-09T12:56:20;3.23;;;1.30;;
18360;SDS011;9308;48.550;9.108;2022-09-09T12:58:48;2.30;;;0.90;;
18360;SDS011;9308;48.550;9.108;2022-09-09T13:01:26;3.77;;;1.00;;
18360;SDS011;9308;48.550;9.108;2022-09-09T13:03:54;3.67;;;1.53;;
18360;SDS011;9308;48.550;9.108;2022-09-09T13:06:27;2.63;;;1.07;;
18360;SDS011;9308;48.550;9.108;2022-09-09T13:08:58;1.17;;;1.03;;
18360;SDS011;9308;48.550;9.108;2022-09-09T13:13:56;4.03;;;1.50;;
18360;SDS011;9308;48.550;9.108;2022-09-09T13:16:27;5.33;;;1.20;;
18360;SDS011;9308;48.550;9.108;2022-09-09T13:19:01;2.37;;;1.40;;
18360;SDS011;9308;48.550;9.108;2022-09-09T13:21:33;4.93;;;1.30;;
18360;SDS011;9308;48.550;9.108;2022-09-09T13:24:04;2.20;;;1.40;;
18360;SDS011;9308;48.550;9.108;2022-09-09T13:26:32;1.43;;;1.00;;
18360;SDS011;9308;48.550;9.108;2022-09-09T13:29:07;1.43;;;1.10;;
18360;SDS011;9308;48.550;9.108;2022-09-09T13:31:42;1.30;;;1.07;;
18360;SDS011;9308;48.550;9.108;2022-09-09T13:37:01;3.30;;;1.30;;
18360;SDS011;9308;48.550;9.108;2022-09-09T13:39:28;1.20;;;1.00;;
18360;SDS011;9308;48.550;9.108;2022-09-09T13:41:54;2.33;;;1.10;;
18360;SDS011;9308;48.550;9.108;2022-09-09T13:47:06;3.33;;;1.00;;
18360;SDS011;9308;48.550;9.108;2022-09-09T13:49:44;1.67;;;1.00;;
18360;SDS011;9308;48.550;9.108;2022-09-09T13:52:14;1.97;;;1.20;;
18360;SDS011;9308;48.550;9.108;2022-09-09T13:54:41;1.30;;;1.00;;
18360;SDS011;9308;48.550;9.108;2022-09-09T13:57:15;3.00;;;1.10;;
18360;SDS011;9308;48.550;9.108;2022-09-09T13:59:43;2.10;;;0.97;;
18360;SDS011;9308;48.550;9.108;2022-09-09T14:02:10;1.03;;;0.90;;
18360;SDS011;9308;48.550;9.108;2022-09-09T14:04:35;2.07;;;1.10;;
18360;SDS011;9308;48.550;9.108;2022-09-09T14:07:01;2.60;;;1.03;;
18360;SDS011;9308;48.550;9.108;2022-09-09T14:09:27;2.60;;;1.00;;
18360;SDS011;9308;48.550;9.108;2022-09-09T14:11:52;1.90;;;1.00;;
18360;SDS011;9308;48.550;9.108;2022-09-09T14:14:20;2.87;;;1.10;;
18360;SDS011;9308;48.550;9.108;2022-09-09T14:16:45;1.83;;;0.90;;
18360;SDS011;9308;48.550;9.108;2022-09-09T14:19:11;1.40;;;1.00;;
18360;SDS011;9308;48.550;9.108;2022-09-09T14:21:36;2.00;;;1.07;;
18360;SDS011;9308;48.550;9.108;2022-09-09T14:24:02;2.03;;;1.00;;
18360;SDS011;9308;48.550;9.108;2022-09-09T14:26:27;1.50;;;0.80;;
18360;SDS011;9308;48.550;9.108;2022-09-09T14:28:54;1.80;;;0.93;;
18360;SDS011;9308;48.550;9.108;2022-09-09T14:31:21;1.63;;;1.00;;
18360;SDS011;9308;48.550;9.108;2022-09-09T14:33:50;1.17;;;0.70;;
18360;SDS011;9308;48.550;9.108;2022-09-09T14:36:16;1.60;;;0.70;;
18360;SDS011;9308;48.550;9.108;2022-09-09T14:38:41;3.57;;;0.90;;
18360;SDS011;9308;48.550;9.108;2022-09-09T14:41:14;1.30;;;0.83;;
18360;SDS011;9308;48.550;9.108;2022-09-09T14:43:44;1.80;;;1.13;;
18360;SDS011;9308;48.550;9.108;2022-09-09T14:46:11;2.03;;;0.90;;
18360;SDS011;9308;48.550;9.108;2022-09-09T14:48:41;1.53;;;0.87;;
18360;SDS011;9308;48.550;9.108;2022-09-09T14:51:10;2.80;;;1.10;;
18360;SDS011;9308;48.550;9.108;2022-09-09T14:53:38;1.23;;;0.63;;
18360;SDS011;9308;48.550;9.108;2022-09-09T14:56:08;3.30;;;0.93;;
18360;SDS011;9308;48.550;9.108;2022-09-09T14:58:35;1.67;;;1.00;;
18360;SDS011;9308;48.550;9.108;2022-09-09T15:01:06;1.20;;;0.80;;
18360;SDS011;9308;48.550;9.108;2022-09-09T15:03:37;1.40;;;1.00;;
18360;SDS011;9308;48.550;9.108;2022-09-09T15:08:37;1.30;;;0.80;;
18360;SDS011;9308;48.550;9.108;2022-09-09T15:11:04;1.77;;;1.10;;
18360;SDS011;9308;48.550;9.108;2022-09-09T15:13:31;5.30;;;1.90;;
18360;SDS011;9308;48.550;9.108;2022-09-09T15:16:02;1.90;;;0.93;;
18360;SDS011;9308;48.550;9.108;2022-09-09T15:18:29;1.80;;;0.70;;
18360;SDS011;9308;48.550;9.108;2022-09-09T15:20:55;2.60;;;0.90;;
18360;SDS011;9308;48.550;9.108;2022-09-09T15:23:21;0.97;;;0.73;;
18360;SDS011;9308;48.550;9.108;2022-09-09T15:25:50;1.60;;;1.00;;
18360;SDS011;9308;48.550;9.108;2022-09-09T15:28:17;2.00;;;1.20;;
18360;SDS011;9308;48.550;9.108;2022-09-09T15:30:42;2.57;;;1.10;;
18360;SDS011;9308;48.550;9.108;2022-09-09T15:33:10;3.43;;;0.90;;
18360;SDS011;9308;48.550;9.108;2022-09-09T15:35:35;1.47;;;0.80;;
18360;SDS011;9308;48.550;9.108;2022-09-09T15:38:01;2.70;;;1.23;;
18360;SDS011;9308;48.550;9.108;2022-09-09T15:40:30;3.50;;;1.10;;
18360;SDS011;9308;48.550;9.108;2022-09-09T15:42:57;8.00;;;1.10;;
18360;SDS011;9308;48.550;9.108;2022-09-09T15:45:23;1.90;;;0.93;;
18360;SDS011;9308;48.550;9.108;2022-09-09T15:47:48;1.40;;;1.00;;
18360;SDS011;9308;48.550;9.108;2022-09-09T15:50:14;2.10;;;0.90;;
18360;SDS011;9308;48.550;9.108;2022-09-09T15:52:40;1.30;;;0.80;;
18360;SDS011;9308;48.550;9.108;2022-09-09T15:55:05;1.00;;;0.90;;
18360;SDS011;9308;48.550;9.108;2022-09-09T15:57:31;1.47;;;0.77;;
18360;SDS011;9308;48.550;9.108;2022-09-09T15:59:57;2.40;;;0.70;;
18360;SDS011;9308;48.550;9.108;2022-09-09T16:02:24;2.20;;;0.83;;
18360;SDS011;9308;48.550;9.108;2022-09-09T16:04:50;1.47;;;0.90;;
18360;SDS011;9308;48.550;9.108;2022-09-09T16:07:15;1.20;;;0.70;;
18360;SDS011;9308;48.550;9.108;2022-09-09T16:09:40;0.90;;;0.77;;
18360;SDS011;9308;48.550;9.108;2022-09-09T16:12:08;2.03;;;0.63;;
18360;SDS011;9308;48.550;9.108;2022-09-09T16:14:38;6.00;;;1.00;;
18360;SDS011;9308;48.550;9.108;2022-09-09T16:17:04;0.80;;;0.80;;
18360;SDS011;9308;48.550;9.108;2022-09-09T16:19:31;1.13;;;0.80;;
18360;SDS011;9308;48.550;9.108;2022-09-09T16:21:57;0.90;;;0.87;;
18360;SDS011;9308;48.550;9.108;2022-09-09T16:24:23;1.17;;;0.90;;
18360;SDS011;9308;48.550;9.108;2022-09-09T16:26:50;1.57;;;0.80;;
18360;SDS011;9308;48.550;9.108;2022-09-09T16:29:17;2.47;;;0.90;;
18360;SDS011;9308;48.550;9.108;2022-09-09T16:31:47;2.20;;;1.00;;
18360;SDS011;9308;48.550;9.108;2022-09-09T16:34:13;0.73;;;0.73;;
18360;SDS011;9308;48.550;9.108;2022-09-09T16:36:40;2.30;;;1.27;;
18360;SDS011;9308;48.550;9.108;2022-09-09T16:39:08;1.27;;;0.83;;
18360;SDS011;9308;48.550;9.108;2022-09-09T16:41:35;15.60;;;1.47;;
18360;SDS011;9308;48.550;9.108;2022-09-09T16:44:02;0.97;;;0.80;;
18360;SDS011;9308;48.550;9.108;2022-09-09T16:46:31;2.60;;;0.73;;
18360;SDS011;9308;48.550;9.108;2022-09-09T16:48:59;6.03;;;1.33;;
18360;SDS011;9308;48.550;9.108;2022-09-09T16:51:27;0.90;;;0.83;;
18360;SDS011;9308;48.550;9.108;2022-09-09T16:53:54;1.80;;;1.37;;
18360;SDS011;9308;48.550;9.108;2022-09-09T16:56:23;3.63;;;1.30;;
18360;SDS011;9308;48.550;9.108;2022-09-09T16:58:51;3.50;;;1.00;;
18360;SDS011;9308;48.550;9.108;2022-09-09T17:01:19;5.80;;;1.30;;
18360;SDS011;9308;48.550;9.108;2022-09-09T17:03:44;3.47;;;1.03;;
18360;SDS011;9308;48.550;9.108;2022-09-09T17:06:10;2.20;;;1.07;;
18360;SDS011;9308;48.550;9.108;2022-09-09T17:08:37;1.87;;;1.00;;
18360;SDS011;9308;48.550;9.108;2022-09-09T17:11:08;2.17;;;0.80;;
18360;SDS011;9308;48.550;9.108;2022-09-09T17:13:39;1.67;;;1.40;;
18360;SDS011;9308;48.550;9.108;2022-09-09T17:16:05;2.93;;;1.20;;
18360;SDS011;9308;48.550;9.108;2022-09-09T17:18:31;2.43;;;0.93;;